Pungoteague, Virginia
Current Conditions -  °F | °C
As of 6:15 PM on Wednesday 26 Nov 2014 (Local Time) from KMFV Reporting Station
Drizzle Drizzle  
Wind Chill: 30°   Ceiling: 700
Heat Index: 39°   Visibility: 7mi
Dew Point: 36°   Wind: 17mph
Humidity: 87%   Direction: 330°NNW
Pressure: 29.87"   Gusts: 30mph
Location:  37.63°N, 75.81°W
Report Text: KMFV 262315Z AUTO 33015G26KT 290V350 7SM -DZ OVC007 04/02 A2987 RMK AO2
Loading
Personal Weather Stations






























Interactive Weather Map New forecast layout! Learn more

10-Day Weather Forecast

Advertisements
Track Severe Weather on mobile